createdAt,value
2022-08-01T00:00:03.001Z,1013.23
2022-08-01T00:05:02.726Z,1013.25
2022-08-01T00:10:02.602Z,1013.24
2022-08-01T00:15:02.396Z,1013.35
2022-08-01T00:20:03.134Z,1013.34
2022-08-01T00:25:02.975Z,1013.35
2022-08-01T00:30:14.749Z,1013.36
2022-08-01T00:35:02.794Z,1013.39
2022-08-01T00:40:02.492Z,1013.42
2022-08-01T00:45:03.191Z,1013.37
2022-08-01T00:50:02.871Z,1013.4
2022-08-01T00:55:03.765Z,1013.43
2022-08-01T01:00:02.517Z,1013.46
2022-08-01T01:05:03.153Z,1013.45
2022-08-01T01:10:03.121Z,1013.37
2022-08-01T01:15:03.096Z,1013.25
2022-08-01T01:20:02.679Z,1013.31
2022-08-01T01:25:03.148Z,1013.39
2022-08-01T01:30:03.004Z,1013.29
2022-08-01T01:35:02.613Z,1013.27
2022-08-01T01:40:03.218Z,1013.22
2022-08-01T01:45:03.202Z,1013.1
2022-08-01T01:50:03.532Z,1013.1
2022-08-01T01:55:04.057Z,1013.02
2022-08-01T02:00:02.737Z,1013.06
2022-08-01T02:50:02.724Z,1013.32
2022-08-01T02:55:03.744Z,1013.34
2022-08-01T03:00:03.213Z,1013.34
2022-08-01T03:05:02.862Z,1013.37
2022-08-01T03:10:02.577Z,1013.39
2022-08-01T03:15:02.307Z,1013.39
2022-08-01T03:20:02.998Z,1013.44
2022-08-01T03:25:02.844Z,1013.51
2022-08-01T03:30:02.622Z,1013.47
2022-08-01T03:35:02.471Z,1013.49
2022-08-01T03:40:02.301Z,1013.47
2022-08-01T03:45:03.065Z,1013.52
2022-08-01T03:50:02.831Z,1013.55
2022-08-01T03:55:03.514Z,1013.51
2022-08-01T04:00:02.287Z,1013.58
2022-08-01T04:05:03.117Z,1013.62
2022-08-01T04:10:03.080Z,1013.65
2022-08-01T04:15:02.957Z,1013.62
2022-08-01T04:20:02.772Z,1013.6
2022-08-01T04:25:02.526Z,1013.73
2022-08-01T04:30:02.300Z,1013.73
2022-08-01T04:35:02.914Z,1013.73
2022-08-01T04:40:02.602Z,1013.81
2022-08-01T04:45:02.395Z,1013.84
2022-08-01T04:50:03.029Z,1013.91
2022-08-01T04:55:03.918Z,1013.84
2022-08-01T05:00:02.601Z,1014.05
2022-08-01T05:05:02.418Z,1013.99
2022-08-01T05:10:02.212Z,1013.95
2022-08-01T05:15:02.990Z,1013.95
2022-08-01T05:20:02.951Z,1013.97
2022-08-01T05:25:02.640Z,1014.01
2022-08-01T05:30:03.156Z,1014.13
2022-08-01T05:35:02.882Z,1014.08
2022-08-01T05:40:02.761Z,1014.16
2022-08-01T05:45:02.741Z,1014.06
2022-08-01T05:50:02.459Z,1014.09
2022-08-01T05:55:03.565Z,1014.03
2022-08-01T06:00:03.277Z,1014.11
2022-08-01T06:05:02.463Z,1014.15
2022-08-01T06:10:02.348Z,1014.14
2022-08-01T06:15:03.091Z,1014.2
2022-08-01T06:20:02.959Z,1014.2
2022-08-01T06:25:02.665Z,1014.11
2022-08-01T06:30:02.524Z,1014.14
2022-08-01T06:35:02.335Z,1014.21
2022-08-01T06:40:03.014Z,1014.26
2022-08-01T06:45:02.846Z,1014.22
2022-08-01T06:50:02.499Z,1014.22
2022-08-01T06:55:03.406Z,1014.27
2022-08-01T07:00:02.974Z,1014.3
2022-08-01T07:05:03.816Z,1014.2
2022-08-01T07:10:02.495Z,1014.34
2022-08-01T07:15:03.219Z,1014.33
2022-08-01T07:20:03.016Z,1014.3
2022-08-01T07:25:02.858Z,1014.35
2022-08-01T07:30:02.677Z,1014.41
2022-08-01T07:35:02.326Z,1014.39
2022-08-01T07:40:02.883Z,1014.45
2022-08-01T07:45:02.637Z,1014.53
2022-08-01T07:50:02.432Z,1014.41
2022-08-01T07:55:04.302Z,1014.45
2022-08-01T08:00:03.051Z,1014.4
2022-08-01T08:05:02.611Z,1014.4
2022-08-01T08:10:02.369Z,1014.53
2022-08-01T08:15:03.223Z,1014.59
2022-08-01T08:20:02.962Z,1014.64
2022-08-01T08:25:02.622Z,1014.7
2022-08-01T08:30:02.536Z,1014.83
2022-08-01T08:35:03.024Z,1014.99
2022-08-01T08:40:02.803Z,1015
2022-08-01T08:45:02.919Z,1015.06
2022-08-01T08:50:02.265Z,1015.12
2022-08-01T08:55:04.008Z,1015.19
2022-08-01T09:00:02.814Z,1015.19
2022-08-01T09:05:02.477Z,1015.35
2022-08-01T09:10:02.377Z,1015.35
2022-08-01T09:15:03.216Z,1015.36
2022-08-01T09:20:02.934Z,1015.27
2022-08-01T09:25:02.884Z,1015.37
2022-08-01T09:30:02.461Z,1015.43
2022-08-01T09:35:03.081Z,1015.47
2022-08-01T09:40:02.821Z,1015.38
2022-08-01T09:45:02.614Z,1015.31
2022-08-01T09:50:05.304Z,1015.35
2022-08-01T09:55:05.217Z,1015.47
2022-08-01T10:00:02.963Z,1015.48
2022-08-01T10:05:03.488Z,1015.36
2022-08-01T10:10:02.707Z,1015.28
2022-08-01T10:15:02.474Z,1015.22
2022-08-01T10:20:02.401Z,1015.25
2022-08-01T10:25:03.092Z,1015.32
2022-08-01T10:30:05.248Z,1015.37
2022-08-01T10:35:06.455Z,1015.41
2022-08-01T10:40:28.675Z,1015.58
2022-08-01T10:45:05.079Z,1015.74
2022-08-01T10:50:04.821Z,1015.85
2022-08-01T10:55:04.241Z,1015.71
2022-08-01T11:00:03.336Z,1015.65
2022-08-01T11:05:02.232Z,1015.69
2022-08-01T11:10:03.027Z,1015.6
2022-08-01T11:15:03.479Z,1015.68
2022-08-01T11:20:02.746Z,1015.48
2022-08-01T11:25:02.434Z,1015.5
2022-08-01T11:30:03.135Z,1015.51
2022-08-01T11:35:03.012Z,1015.43
2022-08-01T11:40:02.617Z,1015.35
2022-08-01T11:45:02.526Z,1015.4
2022-08-01T11:50:03.450Z,1015.46
2022-08-01T11:55:04.745Z,1015.44
2022-08-01T12:00:08.997Z,1015.48
2022-08-01T12:05:02.442Z,1015.56
2022-08-01T12:10:02.476Z,1015.36
2022-08-01T12:15:02.518Z,1015.53
2022-08-01T12:20:02.927Z,1015.42
2022-08-01T12:25:02.974Z,1015.55
2022-08-01T12:30:02.910Z,1015.54
2022-08-01T12:35:03.402Z,1015.55
2022-08-01T12:40:03.111Z,1015.54
2022-08-01T12:45:02.863Z,1015.63
2022-08-01T12:50:02.831Z,1015.64
2022-08-01T12:55:10.328Z,1015.66
2022-08-01T13:00:02.990Z,1015.65
2022-08-01T13:05:02.269Z,1015.66
2022-08-01T13:10:03.513Z,1015.61
2022-08-01T13:15:03.177Z,1015.58
2022-08-01T13:20:03.328Z,1015.67
2022-08-01T13:25:02.723Z,1015.65
2022-08-01T13:30:02.461Z,1015.75
2022-08-01T13:35:03.205Z,1015.56
2022-08-01T13:40:03.666Z,1015.61
2022-08-01T13:45:03.959Z,1015.6
2022-08-01T13:50:02.513Z,1015.56
2022-08-01T13:55:11.372Z,1015.65
2022-08-01T14:00:02.939Z,1015.64
2022-08-01T14:05:02.656Z,1015.73
2022-08-01T14:10:21.147Z,1015.8
2022-08-01T14:15:02.404Z,1015.88
2022-08-01T14:20:03.210Z,1015.87
2022-08-01T14:25:03.610Z,1015.87
2022-08-01T14:30:04.823Z,1015.91
2022-08-01T14:35:02.357Z,1015.9
2022-08-01T14:40:03.193Z,1015.96
2022-08-01T14:45:03.359Z,1016.04
2022-08-01T14:50:02.744Z,1016.05
2022-08-01T14:55:03.491Z,1016.05
2022-08-01T15:00:02.861Z,1016
2022-08-01T15:05:03.030Z,1016.02
2022-08-01T15:10:03.231Z,1015.94
2022-08-01T15:15:02.779Z,1016.13
2022-08-01T15:20:02.467Z,1016.09
2022-08-01T15:25:02.674Z,1016.06
2022-08-01T15:30:03.082Z,1016.11
2022-08-01T15:35:02.897Z,1016.1
2022-08-01T15:40:02.777Z,1016.05
2022-08-01T15:45:02.705Z,1016.02
2022-08-01T15:50:02.392Z,1016.19
2022-08-01T15:55:04.330Z,1016.03
2022-08-01T16:00:02.925Z,1016.16
2022-08-01T16:05:02.628Z,1016.17
2022-08-01T16:10:02.430Z,1016.08
2022-08-01T16:15:03.546Z,1016.11
2022-08-01T16:20:02.915Z,1016.14
2022-08-01T16:25:02.575Z,1016.06
2022-08-01T16:30:02.328Z,1016.05
2022-08-01T16:35:03.486Z,1016.11
2022-08-01T16:40:02.887Z,1016.1
2022-08-01T16:45:04.052Z,1016.09
2022-08-01T16:50:02.975Z,1016.11
2022-08-01T16:55:06.544Z,1016.05
2022-08-01T17:00:02.822Z,1015.98
2022-08-01T17:05:07.327Z,1016.1
2022-08-01T17:10:02.798Z,1016.07
2022-08-01T17:15:03.126Z,1016.05
2022-08-01T17:20:02.938Z,1016.04
2022-08-01T17:25:02.744Z,1016.04
2022-08-01T17:30:02.759Z,1016.1
2022-08-01T17:35:03.095Z,1016.07
2022-08-01T17:40:06.317Z,1016.12
2022-08-01T17:45:28.495Z,1016.14
2022-08-01T17:50:02.801Z,1016.09
2022-08-01T17:55:03.848Z,1016.16
2022-08-01T18:00:03.707Z,1016.19
2022-08-01T18:05:11.129Z,1016.24
2022-08-01T18:10:03.184Z,1016.32
2022-08-01T18:15:02.461Z,1016.31
2022-08-01T18:20:03.131Z,1016.27
2022-08-01T18:25:03.887Z,1016.28
2022-08-01T18:30:02.849Z,1016.32
2022-08-01T18:35:05.453Z,1016.4
2022-08-01T18:40:03.026Z,1016.37
2022-08-01T18:45:03.238Z,1016.4
2022-08-01T18:50:02.421Z,1016.46
2022-08-01T18:55:04.156Z,1016.55
2022-08-01T19:00:02.843Z,1016.53
2022-08-01T19:05:02.491Z,1016.63
2022-08-01T19:10:02.683Z,1016.75
2022-08-01T19:15:04.980Z,1016.66
2022-08-01T19:20:02.798Z,1016.71
2022-08-01T19:25:03.054Z,1016.85
2022-08-01T19:30:02.477Z,1016.98
2022-08-01T19:35:02.260Z,1017.04
2022-08-01T19:40:03.351Z,1017.02
2022-08-01T19:45:02.693Z,1017.11
2022-08-01T19:50:02.344Z,1017.16
2022-08-01T19:55:09.284Z,1017.21
2022-08-01T20:00:02.209Z,1017.3
2022-08-01T20:05:02.947Z,1017.26
2022-08-01T20:10:02.756Z,1017.25
2022-08-01T20:15:02.819Z,1017.37
2022-08-01T20:20:03.134Z,1017.46
2022-08-01T20:25:02.812Z,1017.51
2022-08-01T20:30:02.889Z,1017.56
2022-08-01T20:35:03.654Z,1017.62
2022-08-01T20:40:03.145Z,1017.87
2022-08-01T20:45:02.768Z,1017.89
2022-08-01T20:50:54.715Z,1017.85
2022-08-01T20:55:05.014Z,1017.91
2022-08-01T21:00:03.168Z,1018.1
2022-08-01T21:05:02.807Z,1018.15
2022-08-01T21:10:02.605Z,1018.05
2022-08-01T21:15:02.354Z,1018.17
2022-08-01T21:20:03.089Z,1018.17
2022-08-01T21:25:02.717Z,1018.24
2022-08-01T21:30:03.676Z,1018.21
2022-08-01T21:35:02.802Z,1018.27
2022-08-01T21:40:10.802Z,1018.32
2022-08-01T21:45:03.076Z,1018.3
2022-08-01T21:50:02.748Z,1018.33
2022-08-01T21:55:16.074Z,1018.45
2022-08-01T22:00:03.017Z,1018.44
2022-08-01T22:05:02.338Z,1018.45
2022-08-01T22:10:03.438Z,1018.5
2022-08-01T22:15:02.781Z,1018.59
2022-08-01T22:20:02.483Z,1018.62
2022-08-01T22:25:03.713Z,1018.66
2022-08-01T22:30:02.893Z,1018.69
2022-08-01T22:35:02.577Z,1018.74
2022-08-01T22:40:03.557Z,1018.74
2022-08-01T22:45:02.879Z,1018.7
2022-08-01T22:50:02.730Z,1018.71
2022-08-01T22:55:03.881Z,1018.67
2022-08-01T23:00:02.381Z,1018.83
2022-08-01T23:05:03.490Z,1018.95
2022-08-01T23:10:02.850Z,1019.01
2022-08-01T23:15:02.627Z,1018.98
2022-08-01T23:20:02.825Z,1018.98
2022-08-01T23:25:04.800Z,1018.97
2022-08-01T23:30:02.314Z,1018.95
2022-08-01T23:35:03.414Z,1018.98
2022-08-01T23:40:02.769Z,1018.9
2022-08-01T23:45:02.545Z,1018.89
2022-08-01T23:50:02.647Z,1018.81
2022-08-01T23:55:16.099Z,1018.76
